createdAt,value
2023-05-21T00:00:49.256Z,4.00
2023-05-21T00:01:49.261Z,4.00
2023-05-21T00:02:49.455Z,4.00
2023-05-21T00:03:49.438Z,4.00
2023-05-21T00:04:49.217Z,4.00
2023-05-21T00:05:49.280Z,4.00
2023-05-21T00:06:49.187Z,4.00
2023-05-21T00:07:49.158Z,4.00
2023-05-21T00:08:47.236Z,4.00
2023-05-21T00:09:49.143Z,4.00
2023-05-21T00:10:49.148Z,4.00
2023-05-21T00:11:49.124Z,4.00
2023-05-21T00:12:49.101Z,4.00
2023-05-21T00:13:49.090Z,4.00
2023-05-21T00:14:49.085Z,4.00
2023-05-21T00:15:49.067Z,4.00
2023-05-21T00:16:49.127Z,4.00
2023-05-21T00:17:49.102Z,4.00
2023-05-21T00:18:49.114Z,4.00
2023-05-21T00:19:49.023Z,4.00
2023-05-21T00:20:48.987Z,4.00
2023-05-21T00:21:49.009Z,4.00
2023-05-21T00:22:48.963Z,4.00
2023-05-21T00:23:48.974Z,4.00
2023-05-21T00:24:48.947Z,4.00
2023-05-21T00:25:48.931Z,4.00
2023-05-21T00:26:48.915Z,4.00
2023-05-21T00:27:48.915Z,4.00
2023-05-21T00:28:48.879Z,4.00
2023-05-21T00:29:48.877Z,4.00
2023-05-21T00:30:48.859Z,4.00
2023-05-21T00:31:49.014Z,4.00
2023-05-21T00:32:48.828Z,4.00
2023-05-21T00:33:48.836Z,4.00
2023-05-21T00:34:48.815Z,4.00
2023-05-21T00:35:48.781Z,4.00
2023-05-21T00:36:48.788Z,4.00
2023-05-21T00:37:48.785Z,4.00
2023-05-21T00:38:48.788Z,4.00
2023-05-21T00:39:48.728Z,4.00
2023-05-21T00:40:48.726Z,4.00
2023-05-21T00:41:48.757Z,4.00
2023-05-21T00:42:48.680Z,4.00
2023-05-21T00:43:48.733Z,4.00
2023-05-21T00:44:48.677Z,4.00
2023-05-21T00:45:48.768Z,4.00
2023-05-21T00:46:48.655Z,4.00
2023-05-21T00:47:48.699Z,4.00
2023-05-21T00:48:48.611Z,4.00
2023-05-21T00:49:48.601Z,4.00
2023-05-21T00:50:48.577Z,4.00
2023-05-21T00:51:48.568Z,4.00
2023-05-21T00:52:48.568Z,4.00
2023-05-21T00:53:48.553Z,4.00
2023-05-21T00:54:48.536Z,4.00
2023-05-21T00:55:48.502Z,4.00
2023-05-21T00:56:48.482Z,4.00
2023-05-21T00:57:48.491Z,4.00
2023-05-21T00:58:48.461Z,4.00
2023-05-21T00:59:48.456Z,4.00
2023-05-21T01:00:48.452Z,4.00
2023-05-21T01:01:48.501Z,4.00
2023-05-21T01:02:48.488Z,4.00
2023-05-21T01:03:48.514Z,4.00
2023-05-21T01:04:48.401Z,4.00
2023-05-21T01:05:48.369Z,4.00
2023-05-21T01:06:48.368Z,4.00
2023-05-21T01:07:48.369Z,4.00
2023-05-21T01:08:48.325Z,4.00
2023-05-21T01:09:48.315Z,4.00
2023-05-21T01:10:48.293Z,4.00
2023-05-21T01:11:48.301Z,4.00
2023-05-21T01:12:48.253Z,4.00
2023-05-21T01:13:48.262Z,4.00
2023-05-21T01:14:48.241Z,4.00
2023-05-21T01:15:48.223Z,4.00
2023-05-21T01:16:48.353Z,4.00
2023-05-21T01:17:48.273Z,4.00
2023-05-21T01:18:48.264Z,4.00
2023-05-21T01:19:48.257Z,4.00
2023-05-21T01:20:48.210Z,4.00
2023-05-21T01:21:48.157Z,4.00
2023-05-21T01:22:48.136Z,4.00
2023-05-21T01:23:48.121Z,4.00
2023-05-21T01:24:48.116Z,4.00
2023-05-21T01:25:48.608Z,4.00
2023-05-21T01:26:48.089Z,4.00
2023-05-21T01:27:48.064Z,4.00
2023-05-21T01:28:48.072Z,4.00
2023-05-21T01:29:48.041Z,4.00
2023-05-21T01:30:46.395Z,4.00
2023-05-21T01:31:48.027Z,4.00
2023-05-21T01:32:48.124Z,4.00
2023-05-21T01:33:48.055Z,4.00
2023-05-21T01:34:47.964Z,4.00
2023-05-21T01:35:47.971Z,4.00
2023-05-21T01:36:47.937Z,4.00
2023-05-21T01:37:47.940Z,4.00
2023-05-21T01:38:47.909Z,4.00
2023-05-21T01:39:47.915Z,4.00
2023-05-21T01:40:47.901Z,4.00
2023-05-21T01:41:47.876Z,4.00
2023-05-21T01:42:47.875Z,4.00
2023-05-21T01:43:47.850Z,4.00
2023-05-21T01:44:47.845Z,4.00
2023-05-21T01:45:47.832Z,4.00
2023-05-21T01:46:47.413Z,4.00
2023-05-21T01:47:47.861Z,4.00
2023-05-21T01:48:47.780Z,4.00
2023-05-21T01:49:47.786Z,4.00
2023-05-21T01:50:47.767Z,4.00
2023-05-21T01:51:47.731Z,4.00
2023-05-21T01:52:47.739Z,4.00
2023-05-21T01:53:47.711Z,4.00
2023-05-21T01:54:47.744Z,4.00
2023-05-21T01:55:47.684Z,4.00
2023-05-21T01:56:47.672Z,4.00
2023-05-21T01:57:47.661Z,4.00
2023-05-21T01:58:47.626Z,4.00
2023-05-21T01:59:47.644Z,4.00
2023-05-21T02:00:47.610Z,4.00
2023-05-21T02:01:47.627Z,4.00
2023-05-21T02:02:47.699Z,4.00
2023-05-21T02:03:47.680Z,4.00
2023-05-21T02:04:47.575Z,4.00
2023-05-21T02:05:47.563Z,4.00
2023-05-21T02:06:47.025Z,4.00
2023-05-21T02:07:47.525Z,4.00
2023-05-21T02:08:47.007Z,4.00
2023-05-21T02:09:47.489Z,4.00
2023-05-21T02:10:47.485Z,4.00
2023-05-21T02:11:47.454Z,4.00
2023-05-21T02:12:47.480Z,4.00
2023-05-21T02:13:47.452Z,4.00
2023-05-21T02:14:47.422Z,4.00
2023-05-21T02:15:47.400Z,4.00
2023-05-21T02:16:47.436Z,4.00
2023-05-21T02:17:47.410Z,4.00
2023-05-21T02:18:47.416Z,4.00
2023-05-21T02:19:47.371Z,4.00
2023-05-21T02:20:47.333Z,4.00
2023-05-21T02:21:47.333Z,4.00
2023-05-21T02:22:47.345Z,4.00
2023-05-21T02:23:47.308Z,4.00
2023-05-21T02:24:47.282Z,4.00
2023-05-21T02:25:47.292Z,4.00
2023-05-21T02:26:47.256Z,4.00
2023-05-21T02:27:47.260Z,4.00
2023-05-21T02:28:47.232Z,4.00
2023-05-21T02:29:47.287Z,4.00
2023-05-21T02:30:47.190Z,4.00
2023-05-21T02:31:47.201Z,4.00
2023-05-21T02:32:47.171Z,4.00
2023-05-21T02:33:47.172Z,4.00
2023-05-21T02:34:47.160Z,4.00
2023-05-21T02:35:47.128Z,4.00
2023-05-21T02:36:47.140Z,4.00
2023-05-21T02:37:47.163Z,4.00
2023-05-21T02:38:47.081Z,4.00
2023-05-21T02:39:47.079Z,4.00
2023-05-21T02:40:47.066Z,4.00
2023-05-21T02:41:47.057Z,4.00
2023-05-21T02:42:47.052Z,4.00
2023-05-21T02:43:47.038Z,4.00
2023-05-21T02:44:47.017Z,4.00
2023-05-21T02:45:47.041Z,4.00
2023-05-21T02:46:46.997Z,4.00
2023-05-21T02:47:47.023Z,4.00
2023-05-21T02:48:46.962Z,4.00
2023-05-21T02:49:46.943Z,4.00
2023-05-21T02:50:46.922Z,4.00
2023-05-21T02:51:46.923Z,4.00
2023-05-21T02:52:46.908Z,4.00
2023-05-21T02:53:46.897Z,4.00
2023-05-21T02:54:46.873Z,0.00
2023-05-21T02:55:46.860Z,0.00
2023-05-21T02:56:46.864Z,0.00
2023-05-21T02:57:46.841Z,0.00
2023-05-21T02:58:46.815Z,0.00
2023-05-21T02:59:46.855Z,0.00
2023-05-21T03:00:46.793Z,4.00
2023-05-21T03:01:46.835Z,4.00
2023-05-21T03:02:46.808Z,4.00
2023-05-21T03:03:46.789Z,4.00
2023-05-21T03:04:46.794Z,4.00
2023-05-21T03:05:46.731Z,4.00
2023-05-21T03:06:46.706Z,8.00
2023-05-21T03:07:46.686Z,4.00
2023-05-21T03:08:46.681Z,4.00
2023-05-21T03:09:46.685Z,8.00
2023-05-21T03:10:46.660Z,8.00
2023-05-21T03:11:46.643Z,8.00
2023-05-21T03:12:46.618Z,8.00
2023-05-21T03:13:46.624Z,8.00
2023-05-21T03:14:46.653Z,12.00
2023-05-21T03:15:46.596Z,12.00
2023-05-21T03:16:46.589Z,16.00
2023-05-21T03:17:46.588Z,20.00
2023-05-21T03:18:46.548Z,16.00
2023-05-21T03:19:46.536Z,20.00
2023-05-21T03:20:46.524Z,28.00
2023-05-21T03:21:46.504Z,32.00
2023-05-21T03:22:46.512Z,36.00
2023-05-21T03:23:46.481Z,36.00
2023-05-21T03:24:46.479Z,44.00
2023-05-21T03:25:46.436Z,52.00
2023-05-21T03:26:46.424Z,60.00
2023-05-21T03:27:46.408Z,64.00
2023-05-21T03:28:46.417Z,72.00
2023-05-21T03:29:46.397Z,84.00
2023-05-21T03:30:46.528Z,96.00
2023-05-21T03:31:46.418Z,100.00
2023-05-21T03:32:46.414Z,112.00
2023-05-21T03:33:46.338Z,128.00
2023-05-21T03:34:46.327Z,140.00
2023-05-21T03:35:46.304Z,152.00
2023-05-21T03:36:46.282Z,164.00
2023-05-21T03:37:46.303Z,180.00
2023-05-21T03:38:46.255Z,196.00
2023-05-21T03:39:46.272Z,212.00
2023-05-21T03:40:46.238Z,228.00
2023-05-21T03:41:46.226Z,248.00
2023-05-21T03:42:46.218Z,264.00
2023-05-21T03:43:46.206Z,284.00
2023-05-21T03:44:46.235Z,308.00
2023-05-21T03:45:46.230Z,328.00
2023-05-21T03:46:46.153Z,356.00
2023-05-21T03:47:46.209Z,384.00
2023-05-21T03:48:46.172Z,412.00
2023-05-21T03:49:46.126Z,444.00
2023-05-21T03:50:46.089Z,472.00
2023-05-21T03:51:46.085Z,500.00
2023-05-21T03:52:46.106Z,528.00
2023-05-21T03:53:46.064Z,560.00
2023-05-21T03:54:46.046Z,596.00
2023-05-21T03:55:46.038Z,632.00
2023-05-21T03:56:46.027Z,672.00
2023-05-21T03:57:46.025Z,712.00
2023-05-21T03:58:46.002Z,756.00
2023-05-21T03:59:45.989Z,796.00
2023-05-21T04:00:45.973Z,844.00
2023-05-21T04:01:45.969Z,892.00
2023-05-21T04:02:46.015Z,944.00
2023-05-21T04:03:46.019Z,996.00
2023-05-21T04:04:46.005Z,1056.00
2023-05-21T04:05:45.912Z,1112.00
2023-05-21T04:06:45.901Z,1180.00
2023-05-21T04:07:45.878Z,1248.00
2023-05-21T04:08:45.860Z,1328.00
2023-05-21T04:09:45.826Z,1404.00
2023-05-21T04:10:45.852Z,1488.00
2023-05-21T04:11:45.817Z,1576.00
2023-05-21T04:12:45.806Z,1668.00
2023-05-21T04:13:45.801Z,1760.00
2023-05-21T04:14:45.770Z,1864.00
2023-05-21T04:15:45.771Z,1968.00
2023-05-21T04:16:45.729Z,2080.00
2023-05-21T04:17:45.780Z,2192.00
2023-05-21T04:18:45.828Z,2316.00
2023-05-21T04:19:45.697Z,2436.00
2023-05-21T04:20:45.699Z,2560.00
2023-05-21T04:21:45.684Z,2696.00
2023-05-21T04:22:45.669Z,2828.00
2023-05-21T04:23:45.648Z,2960.00
2023-05-21T04:24:45.632Z,3104.00
2023-05-21T04:25:45.628Z,3260.00
2023-05-21T04:26:45.604Z,3396.00
2023-05-21T04:27:45.589Z,3544.00
2023-05-21T04:28:45.590Z,3696.00
2023-05-21T04:29:45.067Z,3852.00
2023-05-21T04:30:45.541Z,4020.00
2023-05-21T04:31:45.577Z,4168.00
2023-05-21T04:32:45.532Z,4320.00
2023-05-21T04:33:45.503Z,4476.00
2023-05-21T04:34:45.503Z,4632.00
2023-05-21T04:35:45.507Z,4788.00
2023-05-21T04:36:45.475Z,4948.00
2023-05-21T04:37:45.462Z,5100.00
2023-05-21T04:38:45.432Z,5256.00
2023-05-21T04:39:45.421Z,5400.00
2023-05-21T04:40:45.426Z,5540.00
2023-05-21T04:41:45.401Z,5672.00
2023-05-21T04:42:45.380Z,5800.00
2023-05-21T04:43:45.370Z,5924.00
2023-05-21T04:44:45.379Z,6040.00
2023-05-21T04:45:45.362Z,6148.00
2023-05-21T04:46:45.381Z,6236.00
2023-05-21T04:47:45.366Z,6316.00
2023-05-21T04:48:45.305Z,6408.00
2023-05-21T04:49:45.281Z,6508.00
2023-05-21T04:50:45.300Z,6604.00
2023-05-21T04:51:45.281Z,6704.00
2023-05-21T04:52:45.249Z,6820.00
2023-05-21T04:53:45.251Z,6932.00
2023-05-21T04:54:45.265Z,7060.00
2023-05-21T04:55:43.501Z,7224.00
2023-05-21T04:56:45.211Z,7500.00
2023-05-21T04:57:45.196Z,7596.00
2023-05-21T04:58:45.174Z,7776.00
2023-05-21T04:59:45.194Z,8188.00
2023-05-21T05:00:45.689Z,8840.00
2023-05-21T05:01:45.125Z,9596.00
2023-05-21T05:02:45.207Z,10380.00
2023-05-21T05:03:45.141Z,10676.00
2023-05-21T05:04:45.103Z,11196.00
2023-05-21T05:05:45.066Z,11180.00
2023-05-21T05:06:45.086Z,10704.00
2023-05-21T05:07:45.045Z,10392.00
2023-05-21T05:08:45.027Z,10024.00
2023-05-21T05:09:45.039Z,10428.00
2023-05-21T05:10:45.014Z,10104.00
2023-05-21T05:11:44.995Z,10540.00
2023-05-21T05:12:45.000Z,10752.00
2023-05-21T05:13:44.989Z,10620.00
2023-05-21T05:14:44.960Z,10316.00
2023-05-21T05:15:45.535Z,10448.00
2023-05-21T05:16:44.975Z,10600.00
2023-05-21T05:17:44.957Z,9988.00
2023-05-21T05:18:44.956Z,9732.00
2023-05-21T05:19:44.879Z,9412.00
2023-05-21T05:20:44.881Z,9328.00
2023-05-21T05:21:44.906Z,9356.00
2023-05-21T05:22:44.841Z,9412.00
2023-05-21T05:23:44.850Z,9488.00
2023-05-21T05:24:44.816Z,9604.00
2023-05-21T05:25:44.799Z,9828.00
2023-05-21T05:26:44.783Z,10252.00
2023-05-21T05:27:44.786Z,10740.00
2023-05-21T05:28:44.772Z,10460.00
2023-05-21T05:29:44.753Z,10368.00
2023-05-21T05:30:44.776Z,10388.00
2023-05-21T05:31:44.723Z,10476.00
2023-05-21T05:32:44.717Z,10600.00
2023-05-21T05:33:44.689Z,10756.00
2023-05-21T05:34:44.692Z,10928.00
2023-05-21T05:35:44.649Z,11100.00
2023-05-21T05:36:44.650Z,11284.00
2023-05-21T05:37:44.655Z,11464.00
2023-05-21T05:38:44.638Z,11648.00
2023-05-21T05:39:44.600Z,11828.00
2023-05-21T05:40:44.592Z,12000.00
2023-05-21T05:41:44.565Z,12172.00
2023-05-21T05:42:44.585Z,12332.00
2023-05-21T05:43:44.550Z,12480.00
2023-05-21T05:44:44.535Z,12624.00
2023-05-21T05:45:44.510Z,12756.00
2023-05-21T05:46:44.076Z,12896.00
2023-05-21T05:47:44.519Z,13016.00
2023-05-21T05:48:44.466Z,13140.00
2023-05-21T05:49:44.461Z,13264.00
2023-05-21T05:50:44.443Z,13384.00
2023-05-21T05:51:44.447Z,13488.00
2023-05-21T05:52:43.958Z,13596.00
2023-05-21T05:53:43.003Z,13696.00
2023-05-21T05:54:44.405Z,13796.00
2023-05-21T05:55:44.381Z,13892.00
2023-05-21T05:56:44.387Z,14000.00
2023-05-21T05:57:45.199Z,14112.00
2023-05-21T05:58:43.182Z,14220.00
2023-05-21T05:59:42.833Z,14332.00
2023-05-21T06:00:44.341Z,14440.00
2023-05-21T06:01:43.084Z,14560.00
2023-05-21T06:02:44.356Z,14696.00
2023-05-21T06:03:44.345Z,14796.00
2023-05-21T06:04:44.281Z,14924.00
2023-05-21T06:05:44.313Z,14996.00
2023-05-21T06:06:44.233Z,14988.00
2023-05-21T06:07:44.239Z,14968.00
2023-05-21T06:08:44.193Z,14968.00
2023-05-21T06:09:44.185Z,14984.00
2023-05-21T06:10:44.188Z,15020.00
2023-05-21T06:11:44.163Z,15084.00
2023-05-21T06:12:44.166Z,15156.00
2023-05-21T06:13:44.150Z,15232.00
2023-05-21T06:14:45.231Z,15300.00
2023-05-21T06:15:44.146Z,15400.00
2023-05-21T06:16:44.098Z,15444.00
2023-05-21T06:17:44.096Z,15468.00
2023-05-21T06:18:44.155Z,15496.00
2023-05-21T06:19:44.059Z,15564.00
2023-05-21T06:20:44.078Z,16144.00
2023-05-21T06:21:44.058Z,16348.00
2023-05-21T06:22:44.032Z,15888.00
2023-05-21T06:23:43.988Z,15540.00
2023-05-21T06:24:43.997Z,15264.00
2023-05-21T06:25:43.980Z,15060.00
2023-05-21T06:26:43.970Z,14936.00
2023-05-21T06:27:43.947Z,14872.00
2023-05-21T06:28:43.935Z,14844.00
2023-05-21T06:29:43.919Z,14836.00
2023-05-21T06:30:43.916Z,14836.00
2023-05-21T06:31:43.881Z,14852.00
2023-05-21T06:32:43.937Z,14884.00
2023-05-21T06:33:43.986Z,14908.00
2023-05-21T06:34:43.870Z,14944.00
2023-05-21T06:35:43.876Z,14984.00
2023-05-21T06:36:43.826Z,15044.00
2023-05-21T06:37:43.804Z,15120.00
2023-05-21T06:38:43.809Z,15204.00
2023-05-21T06:39:43.782Z,15216.00
2023-05-21T06:40:43.767Z,15192.00
2023-05-21T06:41:43.761Z,15192.00
2023-05-21T06:42:43.744Z,15212.00
2023-05-21T06:43:43.735Z,15272.00
2023-05-21T06:44:43.710Z,15376.00
2023-05-21T06:45:43.719Z,15480.00
2023-05-21T06:46:43.677Z,15552.00
2023-05-21T06:47:43.771Z,15568.00
2023-05-21T06:48:43.653Z,15612.00
2023-05-21T06:49:43.640Z,15588.00
2023-05-21T06:50:43.625Z,15452.00
2023-05-21T06:51:43.637Z,15420.00
2023-05-21T06:52:43.611Z,15428.00
2023-05-21T06:53:43.583Z,15480.00
2023-05-21T06:54:43.584Z,15460.00
2023-05-21T06:55:41.594Z,15448.00
2023-05-21T06:56:43.538Z,15508.00
2023-05-21T06:57:43.532Z,15676.00
2023-05-21T06:58:43.499Z,15932.00
2023-05-21T06:59:43.504Z,16088.00
2023-05-21T07:00:43.494Z,16008.00
2023-05-21T07:01:43.528Z,16180.00
2023-05-21T07:02:43.535Z,16584.00
2023-05-21T07:03:43.519Z,17280.00
2023-05-21T07:04:43.457Z,17600.00
2023-05-21T07:05:43.404Z,17952.00
2023-05-21T07:06:43.404Z,18176.00
2023-05-21T07:07:43.409Z,19008.00
2023-05-21T07:08:43.377Z,20160.00
2023-05-21T07:09:43.363Z,21920.00
2023-05-21T07:10:43.342Z,22496.00
2023-05-21T07:11:43.344Z,23680.00
2023-05-21T07:12:43.328Z,25280.00
2023-05-21T07:13:43.355Z,25568.00
2023-05-21T07:14:43.297Z,26016.00
2023-05-21T07:15:43.302Z,27104.00
2023-05-21T07:16:43.361Z,30016.00
2023-05-21T07:17:43.285Z,31392.00
2023-05-21T07:18:43.240Z,34208.00
2023-05-21T07:19:43.237Z,35936.00
2023-05-21T07:20:43.212Z,39008.00
2023-05-21T07:21:43.201Z,39296.00
2023-05-21T07:22:43.173Z,40832.00
2023-05-21T07:23:43.183Z,44096.00
2023-05-21T07:24:43.139Z,46240.00
2023-05-21T07:25:43.144Z,48896.00
2023-05-21T07:26:43.140Z,50336.00
2023-05-21T07:27:43.138Z,50432.00
2023-05-21T07:28:43.102Z,50464.00
2023-05-21T07:29:43.100Z,51328.00
2023-05-21T07:30:43.130Z,53376.00
2023-05-21T07:31:43.076Z,53312.00
2023-05-21T07:32:43.078Z,53312.00
2023-05-21T07:33:43.060Z,53376.00
2023-05-21T07:34:43.027Z,51648.00
2023-05-21T07:35:43.025Z,53664.00
2023-05-21T07:36:42.984Z,55744.00
2023-05-21T07:37:43.038Z,55584.00
2023-05-21T07:38:42.971Z,59232.00
2023-05-21T07:39:42.962Z,61728.00
2023-05-21T07:40:42.969Z,62528.00
2023-05-21T07:41:42.925Z,62816.00
2023-05-21T07:42:42.899Z,65120.00
2023-05-21T07:43:42.899Z,64640.00
2023-05-21T07:44:42.896Z,62752.00
2023-05-21T07:45:42.885Z,58944.00
2023-05-21T07:46:42.944Z,66624.00
2023-05-21T07:47:42.860Z,63712.00
2023-05-21T07:48:42.825Z,56864.00
2023-05-21T07:49:42.830Z,57888.00
2023-05-21T07:50:42.806Z,61664.00
2023-05-21T07:51:42.792Z,61024.00
2023-05-21T07:52:42.803Z,66144.00
2023-05-21T07:53:42.758Z,70720.00
2023-05-21T07:54:42.759Z,72352.00
2023-05-21T07:55:42.728Z,70368.00
2023-05-21T07:56:42.709Z,73440.00
2023-05-21T07:57:42.730Z,73568.00
2023-05-21T07:58:42.701Z,74912.00
2023-05-21T07:59:42.703Z,75552.00
2023-05-21T08:00:42.678Z,72352.00
2023-05-21T08:01:42.657Z,67360.00
2023-05-21T08:02:42.716Z,63296.00
2023-05-21T08:03:42.761Z,62016.00
2023-05-21T08:04:42.643Z,63072.00
2023-05-21T08:05:42.589Z,60192.00
2023-05-21T08:06:42.112Z,64384.00
2023-05-21T08:07:42.559Z,67200.00
2023-05-21T08:08:42.559Z,62848.00
2023-05-21T08:09:42.546Z,55392.00
2023-05-21T08:10:42.540Z,52864.00
2023-05-21T08:11:42.532Z,54976.00
2023-05-21T08:12:42.522Z,54048.00
2023-05-21T08:13:42.507Z,55648.00
2023-05-21T08:14:42.478Z,59232.00
2023-05-21T08:15:40.755Z,55168.00
2023-05-21T08:16:42.603Z,54336.00
2023-05-21T08:17:42.553Z,50912.00
2023-05-21T08:18:42.469Z,50624.00
2023-05-21T08:19:42.436Z,50272.00
2023-05-21T08:20:42.483Z,50208.00
2023-05-21T08:21:42.412Z,51936.00
2023-05-21T08:22:40.561Z,54432.00
2023-05-21T08:23:42.368Z,53632.00
2023-05-21T08:24:42.380Z,55264.00
2023-05-21T08:25:42.382Z,51328.00
2023-05-21T08:26:45.489Z,47424.00
2023-05-21T08:27:41.645Z,45472.00
2023-05-21T08:28:42.386Z,46688.00
2023-05-21T08:29:42.324Z,45504.00
2023-05-21T08:30:42.307Z,44640.00
2023-05-21T08:31:42.337Z,44800.00
2023-05-21T08:32:42.312Z,44256.00
2023-05-21T08:33:42.254Z,44352.00
2023-05-21T08:34:42.230Z,44352.00
2023-05-21T08:35:42.209Z,46560.00
2023-05-21T08:36:41.833Z,46144.00
2023-05-21T08:37:42.207Z,46368.00
2023-05-21T08:38:42.169Z,45152.00
2023-05-21T08:39:42.152Z,45408.00
2023-05-21T08:40:42.129Z,43968.00
2023-05-21T08:41:42.146Z,43840.00
2023-05-21T08:42:42.119Z,43552.00
2023-05-21T08:43:42.152Z,43232.00
2023-05-21T08:44:42.087Z,42368.00
2023-05-21T08:45:42.090Z,40736.00
2023-05-21T08:46:42.056Z,40512.00
2023-05-21T08:47:42.071Z,40736.00
2023-05-21T08:48:42.018Z,40768.00
2023-05-21T08:49:42.011Z,40800.00
2023-05-21T08:50:42.097Z,41184.00
2023-05-21T08:51:42.030Z,40800.00
2023-05-21T08:52:41.982Z,40576.00
2023-05-21T08:53:41.961Z,39808.00
2023-05-21T08:54:41.968Z,39904.00
2023-05-21T08:55:41.991Z,39488.00
2023-05-21T08:56:41.929Z,39360.00
2023-05-21T08:57:41.924Z,39360.00
2023-05-21T08:58:41.905Z,40128.00
2023-05-21T08:59:41.465Z,41248.00
2023-05-21T09:00:41.898Z,42848.00
2023-05-21T09:01:40.956Z,43584.00
2023-05-21T09:02:41.893Z,47072.00
2023-05-21T09:03:41.906Z,48256.00
2023-05-21T09:04:41.912Z,48160.00
2023-05-21T09:05:41.803Z,50528.00
2023-05-21T09:06:41.827Z,51424.00
2023-05-21T09:07:41.787Z,51552.00
2023-05-21T09:08:40.066Z,52448.00
2023-05-21T09:09:41.992Z,54944.00
2023-05-21T09:10:41.744Z,51616.00
2023-05-21T09:11:41.735Z,48672.00
2023-05-21T09:12:41.821Z,46688.00
2023-05-21T09:13:41.704Z,46432.00
2023-05-21T09:14:41.682Z,46912.00
2023-05-21T09:15:41.669Z,46464.00
2023-05-21T09:16:41.691Z,49184.00
2023-05-21T09:17:41.690Z,52288.00
2023-05-21T09:18:39.701Z,49952.00
2023-05-21T09:19:41.500Z,46944.00
2023-05-21T09:20:41.609Z,45632.00
2023-05-21T09:21:41.582Z,47680.00
2023-05-21T09:22:41.603Z,49728.00
2023-05-21T09:23:41.588Z,49664.00
2023-05-21T09:24:41.593Z,52576.00
2023-05-21T09:25:41.566Z,54624.00
2023-05-21T09:26:41.641Z,57376.00
2023-05-21T09:27:41.577Z,65088.00
2023-05-21T09:28:41.505Z,67776.00
2023-05-21T09:29:41.581Z,64096.00
2023-05-21T09:30:41.733Z,61728.00
2023-05-21T09:31:41.499Z,63456.00
2023-05-21T09:32:41.493Z,63200.00
2023-05-21T09:33:41.465Z,67168.00
2023-05-21T09:34:41.420Z,67488.00
2023-05-21T09:35:41.393Z,70816.00
2023-05-21T09:36:41.425Z,78144.00
2023-05-21T09:37:41.400Z,77632.00
2023-05-21T09:38:41.378Z,86208.00
2023-05-21T09:39:41.350Z,88384.00
2023-05-21T09:40:41.351Z,81216.00
2023-05-21T09:41:41.699Z,93248.00
2023-05-21T09:42:40.652Z,94816.00
2023-05-21T09:43:41.326Z,97888.00
2023-05-21T09:44:41.266Z,98752.00
2023-05-21T09:45:41.460Z,96864.00
2023-05-21T09:46:41.794Z,97376.00
2023-05-21T09:47:41.267Z,101152.00
2023-05-21T09:48:41.231Z,98400.00
2023-05-21T09:49:41.235Z,103744.00
2023-05-21T09:50:41.390Z,108064.00
2023-05-21T09:51:41.185Z,108224.00
2023-05-21T09:52:42.292Z,105472.00
2023-05-21T09:53:41.169Z,104256.00
2023-05-21T09:54:41.171Z,102976.00
2023-05-21T09:55:41.191Z,101984.00
2023-05-21T09:56:41.134Z,100704.00
2023-05-21T09:57:41.154Z,99648.00
2023-05-21T09:58:41.106Z,97440.00
2023-05-21T09:59:41.129Z,85216.00
2023-05-21T10:00:41.113Z,73952.00
2023-05-21T10:01:41.206Z,72224.00
2023-05-21T10:02:41.109Z,67552.00
2023-05-21T10:03:41.095Z,64352.00
2023-05-21T10:04:41.091Z,58784.00
2023-05-21T10:05:41.017Z,57920.00
2023-05-21T10:06:41.019Z,60224.00
2023-05-21T10:07:40.989Z,54016.00
2023-05-21T10:08:40.999Z,50528.00
2023-05-21T10:09:40.961Z,48832.00
2023-05-21T10:10:40.457Z,54208.00
2023-05-21T10:11:40.951Z,54624.00
2023-05-21T10:12:40.917Z,54272.00
2023-05-21T10:13:40.914Z,51584.00
2023-05-21T10:14:40.893Z,57760.00
2023-05-21T10:15:40.897Z,61824.00
2023-05-21T10:16:40.962Z,64448.00
2023-05-21T10:17:40.898Z,86112.00
2023-05-21T10:18:40.865Z,84352.00
2023-05-21T10:19:40.855Z,86944.00
2023-05-21T10:20:40.837Z,83232.00
2023-05-21T10:21:40.818Z,84416.00
2023-05-21T10:22:40.797Z,74592.00
2023-05-21T10:23:40.791Z,80992.00
2023-05-21T10:24:38.942Z,65472.00
2023-05-21T10:25:40.779Z,60480.00
2023-05-21T10:26:40.836Z,57056.00
2023-05-21T10:27:40.730Z,56256.00
2023-05-21T10:28:39.062Z,57568.00
2023-05-21T10:29:40.762Z,71104.00
2023-05-21T10:30:39.526Z,79136.00
2023-05-21T10:31:40.785Z,88864.00
2023-05-21T10:32:40.860Z,103168.00
2023-05-21T10:33:40.652Z,99968.00
2023-05-21T10:34:40.661Z,97248.00
2023-05-21T10:35:40.647Z,97632.00
2023-05-21T10:36:40.609Z,107040.00
2023-05-21T10:37:40.609Z,110592.00
2023-05-21T10:38:40.586Z,106432.00
2023-05-21T10:39:40.632Z,99040.00
2023-05-21T10:40:40.583Z,111520.00
2023-05-21T10:41:40.552Z,118048.00
2023-05-21T10:42:40.571Z,120960.00
2023-05-21T10:43:40.555Z,121696.00
2023-05-21T10:44:40.528Z,116352.00
2023-05-21T10:45:40.570Z,108352.00
2023-05-21T10:46:40.491Z,115616.00
2023-05-21T10:47:40.537Z,121312.00
2023-05-21T10:48:40.498Z,119712.00
2023-05-21T10:49:40.477Z,119648.00
2023-05-21T10:50:40.489Z,119360.00
2023-05-21T10:51:40.436Z,109536.00
2023-05-21T10:52:40.446Z,96224.00
2023-05-21T10:53:40.417Z,91488.00
2023-05-21T10:54:40.398Z,91168.00
2023-05-21T10:55:40.411Z,87296.00
2023-05-21T10:56:40.378Z,84736.00
2023-05-21T10:57:40.378Z,86656.00
2023-05-21T10:58:40.368Z,84704.00
2023-05-21T10:59:40.353Z,80288.00
2023-05-21T11:00:40.341Z,72992.00
2023-05-21T11:01:40.421Z,66496.00
2023-05-21T11:02:40.408Z,61824.00
2023-05-21T11:03:39.473Z,58784.00
2023-05-21T11:04:40.310Z,53952.00
2023-05-21T11:05:40.462Z,51040.00
2023-05-21T11:06:40.279Z,50720.00
2023-05-21T11:07:40.263Z,49504.00
2023-05-21T11:08:40.242Z,46592.00
2023-05-21T11:09:40.220Z,44256.00
2023-05-21T11:10:40.296Z,43808.00
2023-05-21T11:11:40.182Z,43008.00
2023-05-21T11:12:40.180Z,43584.00
2023-05-21T11:13:40.165Z,44736.00
2023-05-21T11:14:40.329Z,47168.00
2023-05-21T11:15:39.638Z,47488.00
2023-05-21T11:16:40.202Z,48384.00
2023-05-21T11:17:40.165Z,47648.00
2023-05-21T11:18:40.090Z,47584.00
2023-05-21T11:19:40.195Z,45280.00
2023-05-21T11:20:40.067Z,48128.00
2023-05-21T11:21:40.075Z,45696.00
2023-05-21T11:22:40.061Z,44768.00
2023-05-21T11:23:40.039Z,47136.00
2023-05-21T11:24:40.017Z,48064.00
2023-05-21T11:25:39.998Z,47328.00
2023-05-21T11:26:39.999Z,47008.00
2023-05-21T11:27:40.055Z,46880.00
2023-05-21T11:28:39.964Z,47968.00
2023-05-21T11:29:39.963Z,47488.00
2023-05-21T11:30:41.115Z,48032.00
2023-05-21T11:31:40.454Z,48512.00
2023-05-21T11:32:40.032Z,47776.00
2023-05-21T11:33:39.899Z,52224.00
2023-05-21T11:34:39.900Z,54368.00
2023-05-21T11:35:39.883Z,57792.00
2023-05-21T11:36:39.851Z,55328.00
2023-05-21T11:37:39.839Z,53344.00
2023-05-21T11:38:39.843Z,54400.00
2023-05-21T11:39:40.101Z,53408.00
2023-05-21T11:40:38.612Z,51360.00
2023-05-21T11:41:39.805Z,52096.00
2023-05-21T11:42:39.787Z,53248.00
2023-05-21T11:43:39.762Z,54976.00
2023-05-21T11:44:39.752Z,55072.00
2023-05-21T11:45:39.744Z,56128.00
2023-05-21T11:46:39.775Z,57184.00
2023-05-21T11:47:39.775Z,59072.00
2023-05-21T11:48:39.704Z,62112.00
2023-05-21T11:49:39.705Z,62368.00
2023-05-21T11:50:39.892Z,63232.00
2023-05-21T11:51:39.667Z,63456.00
2023-05-21T11:52:39.642Z,64384.00
2023-05-21T11:53:39.632Z,66464.00
2023-05-21T11:54:39.641Z,67776.00
2023-05-21T11:55:39.641Z,69248.00
2023-05-21T11:56:39.600Z,71936.00
2023-05-21T11:57:39.566Z,71136.00
2023-05-21T11:58:39.563Z,70784.00
2023-05-21T11:59:39.566Z,71328.00
2023-05-21T12:00:39.531Z,72928.00
2023-05-21T12:01:39.559Z,73152.00
2023-05-21T12:02:39.775Z,73664.00
2023-05-21T12:03:39.718Z,71008.00
2023-05-21T12:04:39.498Z,68992.00
2023-05-21T12:05:37.663Z,74208.00
2023-05-21T12:06:39.461Z,77312.00
2023-05-21T12:07:39.459Z,80832.00
2023-05-21T12:08:39.440Z,74496.00
2023-05-21T12:09:39.463Z,70336.00
2023-05-21T12:10:39.415Z,68640.00
2023-05-21T12:11:39.395Z,70656.00